RJTQ(METAR)
10/19 16:00
RJTQ 190700Z 05026KT 5000 RA FEW010 BKN015 OVC030 18/17 Q1014 RMK
A2996=
戻る
トップページへ戻る
IMOC Co,.Ltd.